createdAt,value
2022-09-23T05:25:17.463Z,22.50
2022-09-23T05:26:17.174Z,28.12
2022-09-23T05:27:17.192Z,28.12
2022-09-23T05:28:17.121Z,28.12
2022-09-23T05:29:17.136Z,28.12
2022-09-23T05:30:17.099Z,33.75
2022-09-23T05:31:20.320Z,33.75
2022-09-23T05:32:17.076Z,33.75
2022-09-23T05:33:17.074Z,33.75
2022-09-23T05:34:17.027Z,33.75
2022-09-23T05:35:17.038Z,39.38
2022-09-23T05:36:17.034Z,39.38
2022-09-23T05:37:17.001Z,39.38
2022-09-23T05:38:16.997Z,39.38
2022-09-23T05:39:17.017Z,39.38
2022-09-23T05:40:17.103Z,39.38
2022-09-23T05:41:16.958Z,39.38
2022-09-23T05:42:16.954Z,39.38
2022-09-23T05:43:16.957Z,39.38
2022-09-23T05:44:16.912Z,45.00
2022-09-23T05:45:16.899Z,45.00
2022-09-23T05:46:16.950Z,45.00
2022-09-23T05:47:16.882Z,45.00
2022-09-23T05:48:17.159Z,45.00
2022-09-23T05:49:17.133Z,50.62
2022-09-23T05:50:16.858Z,50.62
2022-09-23T05:51:16.847Z,50.62
2022-09-23T05:52:16.809Z,56.25
2022-09-23T05:53:17.019Z,56.25
2022-09-23T05:54:16.813Z,56.25
2022-09-23T05:55:16.796Z,61.88
2022-09-23T05:56:16.762Z,61.88
2022-09-23T05:57:16.748Z,61.88
2022-09-23T05:58:16.747Z,67.50
2022-09-23T05:59:20.469Z,67.50
2022-09-23T06:00:17.694Z,73.12
2022-09-23T06:01:16.777Z,73.12
2022-09-23T06:02:16.757Z,73.12
2022-09-23T06:03:16.736Z,73.12
2022-09-23T06:04:16.702Z,73.12
2022-09-23T06:05:16.661Z,73.12
2022-09-23T06:06:16.613Z,73.12
2022-09-23T06:07:16.673Z,73.12
2022-09-23T06:08:16.599Z,73.12
2022-09-23T06:09:16.680Z,73.12
2022-09-23T06:10:17.542Z,73.12
2022-09-23T06:11:16.578Z,73.12
2022-09-23T06:12:16.550Z,73.12
2022-09-23T06:13:16.539Z,73.12
2022-09-23T06:14:16.836Z,73.12
2022-09-23T06:15:16.498Z,67.50
2022-09-23T06:16:16.806Z,67.50
2022-09-23T06:17:18.379Z,67.50
2022-09-23T06:18:16.479Z,67.50
2022-09-23T06:19:16.455Z,67.50
2022-09-23T06:20:16.429Z,67.50
2022-09-23T06:21:16.488Z,67.50
2022-09-23T06:22:16.444Z,61.88
2022-09-23T06:23:16.444Z,61.88
2022-09-23T06:24:20.417Z,61.88
2022-09-23T06:25:17.480Z,61.88
2022-09-23T06:26:16.373Z,61.88
2022-09-23T06:27:16.366Z,61.88
2022-09-23T06:28:16.348Z,61.88
2022-09-23T06:29:16.343Z,61.88
2022-09-23T06:30:16.367Z,61.88
2022-09-23T06:31:16.418Z,61.88
2022-09-23T06:32:18.963Z,61.88
2022-09-23T06:33:19.271Z,61.88
2022-09-23T06:34:16.497Z,61.88
2022-09-23T06:35:24.679Z,61.88
2022-09-23T06:36:33.361Z,61.88
2022-09-23T06:37:20.530Z,67.50
2022-09-23T06:38:16.250Z,67.50
2022-09-23T06:39:16.238Z,67.50
2022-09-23T06:40:16.339Z,67.50
2022-09-23T06:41:16.178Z,73.12
2022-09-23T06:42:16.463Z,73.12
2022-09-23T06:43:16.208Z,73.12
2022-09-23T06:44:16.704Z,73.12
2022-09-23T06:45:16.160Z,78.75
2022-09-23T06:46:16.146Z,78.75
2022-09-23T06:47:16.106Z,78.75
2022-09-23T06:48:16.125Z,84.38
2022-09-23T06:49:16.328Z,84.38
2022-09-23T06:50:16.059Z,84.38
2022-09-23T06:51:16.047Z,90.00
2022-09-23T06:52:16.025Z,90.00
2022-09-23T06:53:16.104Z,95.62
2022-09-23T06:54:16.006Z,95.62
2022-09-23T06:55:16.132Z,95.62
2022-09-23T06:56:15.968Z,101.25
2022-09-23T06:57:16.021Z,101.25
2022-09-23T06:58:15.932Z,101.25
2022-09-23T06:59:16.204Z,106.88
2022-09-23T07:00:15.947Z,106.88
2022-09-23T07:01:16.023Z,112.50
2022-09-23T07:02:16.209Z,118.12
2022-09-23T07:03:15.900Z,118.12
2022-09-23T07:04:15.877Z,123.75
2022-09-23T07:05:15.849Z,123.75
2022-09-23T07:06:15.843Z,129.38
2022-09-23T07:07:15.848Z,129.38
2022-09-23T07:08:15.815Z,129.38
2022-09-23T07:09:15.857Z,129.38
2022-09-23T07:10:16.028Z,140.62
2022-09-23T07:11:19.684Z,140.62
2022-09-23T07:12:15.768Z,146.25
2022-09-23T07:13:16.452Z,146.25
2022-09-23T07:14:15.821Z,146.25
2022-09-23T07:15:15.739Z,151.88
2022-09-23T07:16:15.782Z,157.50
2022-09-23T07:17:15.708Z,163.12
2022-09-23T07:18:16.648Z,157.50
2022-09-23T07:19:15.719Z,163.12
2022-09-23T07:20:15.719Z,168.75
2022-09-23T07:21:15.976Z,180.00
2022-09-23T07:22:15.645Z,180.00
2022-09-23T07:23:15.622Z,191.25
2022-09-23T07:24:15.630Z,202.50
2022-09-23T07:25:15.600Z,202.50
2022-09-23T07:26:15.581Z,208.12
2022-09-23T07:27:15.589Z,213.75
2022-09-23T07:28:15.551Z,213.75
2022-09-23T07:29:16.279Z,219.38
2022-09-23T07:30:23.827Z,219.38
2022-09-23T07:31:22.619Z,219.38
2022-09-23T07:32:16.966Z,225.00
2022-09-23T07:33:28.544Z,230.62
2022-09-23T07:34:17.026Z,236.25
2022-09-23T07:35:15.491Z,236.25
2022-09-23T07:36:15.457Z,236.25
2022-09-23T07:37:15.462Z,236.25
2022-09-23T07:38:15.439Z,241.88
2022-09-23T07:39:16.094Z,241.88
2022-09-23T07:40:15.463Z,236.25
2022-09-23T07:41:15.396Z,236.25
2022-09-23T07:42:15.381Z,241.88
2022-09-23T07:43:15.362Z,241.88
2022-09-23T07:44:15.414Z,241.88
2022-09-23T07:45:15.373Z,241.88
2022-09-23T07:46:15.334Z,241.88
2022-09-23T07:47:15.354Z,241.88
2022-09-23T07:48:15.285Z,241.88
2022-09-23T07:49:15.328Z,247.50
2022-09-23T07:50:15.533Z,241.88
2022-09-23T07:51:15.647Z,241.88
2022-09-23T07:52:15.255Z,236.25
2022-09-23T07:53:15.224Z,236.25
2022-09-23T07:54:15.281Z,230.62
2022-09-23T07:55:18.886Z,230.62
2022-09-23T07:56:16.206Z,230.62
2022-09-23T07:57:15.175Z,225.00
2022-09-23T07:58:15.166Z,225.00
2022-09-23T07:59:15.202Z,225.00
2022-09-23T08:00:15.179Z,225.00
2022-09-23T08:01:15.272Z,225.00
2022-09-23T08:02:15.170Z,219.38
2022-09-23T08:03:15.214Z,219.38
2022-09-23T08:04:15.132Z,213.75
2022-09-23T08:05:15.071Z,213.75
2022-09-23T08:06:15.055Z,208.12
2022-09-23T08:07:15.056Z,208.12
2022-09-23T08:08:15.039Z,202.50
2022-09-23T08:09:15.117Z,202.50
2022-09-23T08:10:14.998Z,202.50
2022-09-23T08:11:14.997Z,196.88
2022-09-23T08:12:16.148Z,191.25
2022-09-23T08:13:14.998Z,185.62
2022-09-23T08:14:14.966Z,180.00
2022-09-23T08:15:14.956Z,174.38
2022-09-23T08:16:16.683Z,174.38
2022-09-23T08:17:14.926Z,174.38
2022-09-23T08:18:14.899Z,174.38
2022-09-23T08:19:14.908Z,174.38
2022-09-23T08:20:14.930Z,180.00
2022-09-23T08:21:14.911Z,180.00
2022-09-23T08:22:14.856Z,185.62
2022-09-23T08:23:14.837Z,191.25
2022-09-23T08:24:14.871Z,191.25
2022-09-23T08:25:14.835Z,191.25
2022-09-23T08:26:21.285Z,191.25
2022-09-23T08:27:15.807Z,191.25
2022-09-23T08:28:14.832Z,202.50
2022-09-23T08:29:14.781Z,208.12
2022-09-23T08:30:15.745Z,208.12
2022-09-23T08:31:14.782Z,208.12
2022-09-23T08:32:14.728Z,213.75
2022-09-23T08:33:15.389Z,213.75
2022-09-23T08:34:14.812Z,213.75
2022-09-23T08:35:14.689Z,219.38
2022-09-23T08:36:14.680Z,219.38
2022-09-23T08:37:14.723Z,219.38
2022-09-23T08:38:14.650Z,225.00
2022-09-23T08:39:14.637Z,225.00
2022-09-23T08:40:14.689Z,219.38
2022-09-23T08:41:14.650Z,225.00
2022-09-23T08:42:14.622Z,236.25
2022-09-23T08:43:14.627Z,236.25
2022-09-23T08:44:14.569Z,241.88
2022-09-23T08:45:14.567Z,247.50
2022-09-23T08:46:14.676Z,253.12
2022-09-23T08:47:14.550Z,253.12
2022-09-23T08:48:14.829Z,258.75
2022-09-23T08:49:14.491Z,264.38
2022-09-23T08:50:14.505Z,264.38
2022-09-23T08:51:14.742Z,270.00
2022-09-23T08:52:14.469Z,275.62
2022-09-23T08:53:14.453Z,281.25
2022-09-23T08:54:14.464Z,275.62
2022-09-23T08:55:14.522Z,281.25
2022-09-23T08:56:14.439Z,281.25
2022-09-23T08:57:15.082Z,275.62
2022-09-23T08:58:24.906Z,281.25
2022-09-23T08:59:15.406Z,281.25
2022-09-23T09:00:15.069Z,281.25
2022-09-23T09:01:14.449Z,275.62
2022-09-23T09:02:14.393Z,275.62
2022-09-23T09:03:16.016Z,264.38
2022-09-23T09:04:14.334Z,258.75
2022-09-23T09:05:14.370Z,241.88
2022-09-23T09:06:14.281Z,241.88
2022-09-23T09:08:15.322Z,264.38
2022-09-23T09:09:14.249Z,275.62
2022-09-23T09:10:14.239Z,286.88
2022-09-23T09:11:16.172Z,270.00
2022-09-23T09:12:14.255Z,286.88
2022-09-23T09:13:14.187Z,298.12
2022-09-23T09:14:14.167Z,298.12
2022-09-23T09:15:14.165Z,298.12
2022-09-23T09:16:14.200Z,286.88
2022-09-23T09:17:14.151Z,286.88
2022-09-23T09:18:14.149Z,281.25
2022-09-23T09:19:14.123Z,281.25
2022-09-23T09:20:14.101Z,281.25
2022-09-23T09:21:14.091Z,275.62
2022-09-23T09:22:14.098Z,264.38
2022-09-23T09:23:14.091Z,264.38
2022-09-23T09:24:14.068Z,275.62
2022-09-23T09:25:14.477Z,275.62
2022-09-23T09:26:18.857Z,275.62
2022-09-23T09:27:14.003Z,270.00
2022-09-23T09:28:13.988Z,270.00
2022-09-23T09:29:34.144Z,281.25
2022-09-23T09:30:15.037Z,286.88
2022-09-23T09:31:14.014Z,298.12
2022-09-23T09:32:13.938Z,303.75
2022-09-23T09:33:13.980Z,315.00
2022-09-23T09:34:14.160Z,326.25
2022-09-23T09:35:14.192Z,348.75
2022-09-23T09:36:14.408Z,371.25
2022-09-23T09:37:13.956Z,382.50
2022-09-23T09:38:13.854Z,382.50
2022-09-23T09:39:13.862Z,388.12
2022-09-23T09:40:13.867Z,399.38
2022-09-23T09:41:13.832Z,416.25
2022-09-23T09:42:13.828Z,433.12
2022-09-23T09:43:13.787Z,444.38
2022-09-23T09:44:13.791Z,450.00
2022-09-23T09:45:13.758Z,461.25
2022-09-23T09:46:14.289Z,472.50
2022-09-23T09:47:13.742Z,478.12
2022-09-23T09:48:13.724Z,483.75
2022-09-23T09:49:13.699Z,495.00
2022-09-23T09:50:13.736Z,506.25
2022-09-23T09:51:13.690Z,540.00
2022-09-23T09:52:13.701Z,658.12
2022-09-23T09:53:13.662Z,1659.38
2022-09-23T09:54:13.615Z,2711.25
2022-09-23T09:55:13.659Z,2688.75
2022-09-23T09:56:13.598Z,2863.12
2022-09-23T09:57:13.552Z,2733.75
2022-09-23T09:58:13.540Z,2520.00
2022-09-23T09:59:13.626Z,2542.50
2022-09-23T10:00:13.512Z,2244.38
2022-09-23T10:01:15.267Z,1951.88
2022-09-23T10:02:13.498Z,1215.00
2022-09-23T10:03:13.479Z,556.88
2022-09-23T10:04:13.516Z,472.50
2022-09-23T10:05:13.456Z,433.12
2022-09-23T10:06:13.479Z,427.50
2022-09-23T10:07:13.451Z,410.62
2022-09-23T10:08:13.440Z,405.00
2022-09-23T10:09:13.398Z,421.88
2022-09-23T10:10:22.425Z,421.88
2022-09-23T10:11:14.692Z,421.88
2022-09-23T10:12:13.375Z,427.50
2022-09-23T10:13:13.352Z,444.38
2022-09-23T10:14:13.337Z,461.25
2022-09-23T10:15:13.332Z,472.50
2022-09-23T10:16:13.403Z,478.12
2022-09-23T10:17:13.304Z,489.38
2022-09-23T10:18:13.329Z,495.00
2022-09-23T10:19:15.182Z,495.00
2022-09-23T10:20:13.254Z,506.25
2022-09-23T10:21:13.317Z,506.25
2022-09-23T10:22:13.274Z,506.25
2022-09-23T10:23:13.273Z,517.50
2022-09-23T10:24:13.205Z,517.50
2022-09-23T10:25:13.184Z,523.12
2022-09-23T10:26:13.183Z,534.38
2022-09-23T10:27:13.169Z,540.00
2022-09-23T10:28:13.144Z,545.62
2022-09-23T10:29:13.145Z,556.88
2022-09-23T10:30:13.121Z,562.50
2022-09-23T10:31:13.179Z,562.50
2022-09-23T10:32:13.114Z,568.12
2022-09-23T10:33:13.080Z,579.38
2022-09-23T10:34:13.073Z,579.38
2022-09-23T10:35:13.122Z,585.00
2022-09-23T10:36:13.296Z,590.62
2022-09-23T10:37:15.766Z,590.62
2022-09-23T10:38:13.059Z,596.25
2022-09-23T10:39:13.023Z,596.25
2022-09-23T10:40:13.079Z,601.88
2022-09-23T10:41:12.997Z,601.88
2022-09-23T10:42:12.979Z,607.50
2022-09-23T10:43:12.961Z,607.50
2022-09-23T10:44:12.964Z,613.12
2022-09-23T10:45:12.924Z,613.12
2022-09-23T10:46:13.016Z,618.75
2022-09-23T10:47:12.946Z,624.38
2022-09-23T10:48:12.898Z,624.38
2022-09-23T10:49:12.886Z,624.38
2022-09-23T10:50:12.899Z,630.00
2022-09-23T10:51:12.875Z,641.25
2022-09-23T10:52:12.852Z,646.88
2022-09-23T10:53:17.792Z,675.00
2022-09-23T10:54:12.808Z,680.62
2022-09-23T10:55:12.880Z,703.12
2022-09-23T10:56:13.091Z,691.88
2022-09-23T10:57:12.766Z,669.38
2022-09-23T10:58:12.792Z,669.38
2022-09-23T10:59:12.745Z,646.88
2022-09-23T11:00:12.746Z,635.62
2022-09-23T11:01:12.792Z,646.88
2022-09-23T11:02:12.707Z,646.88
2022-09-23T11:03:12.746Z,652.50
2022-09-23T11:04:12.990Z,658.12
2022-09-23T11:05:12.676Z,663.75
2022-09-23T11:06:12.714Z,663.75
2022-09-23T11:07:12.651Z,658.12
2022-09-23T11:08:12.636Z,646.88
2022-09-23T11:09:12.651Z,641.25
2022-09-23T11:10:23.194Z,635.62
2022-09-23T11:11:13.611Z,624.38
2022-09-23T11:12:12.597Z,607.50
2022-09-23T11:13:12.581Z,590.62
2022-09-23T11:14:12.546Z,573.75
2022-09-23T11:15:12.559Z,562.50
2022-09-23T11:16:12.678Z,556.88
2022-09-23T11:17:12.531Z,545.62
2022-09-23T11:18:12.489Z,534.38
2022-09-23T11:19:15.234Z,528.75
2022-09-23T11:20:12.964Z,517.50
2022-09-23T11:21:13.011Z,506.25
2022-09-23T11:22:12.511Z,500.62
2022-09-23T11:23:12.430Z,483.75
2022-09-23T11:24:12.482Z,489.38
2022-09-23T11:25:12.415Z,472.50
2022-09-23T11:26:12.462Z,466.88
2022-09-23T11:27:12.411Z,466.88
2022-09-23T11:28:12.377Z,466.88
2022-09-23T11:29:12.346Z,466.88
2022-09-23T11:30:12.388Z,461.25
2022-09-23T11:31:12.515Z,461.25
2022-09-23T11:32:12.597Z,450.00
2022-09-23T11:33:12.333Z,455.62
2022-09-23T11:34:12.336Z,466.88
2022-09-23T11:35:12.281Z,483.75
2022-09-23T11:36:12.288Z,500.62
2022-09-23T11:37:12.262Z,511.88
2022-09-23T11:38:12.290Z,534.38
2022-09-23T11:39:12.233Z,556.88
2022-09-23T11:40:12.334Z,590.62
2022-09-23T11:41:12.460Z,607.50
2022-09-23T11:42:12.226Z,596.25
2022-09-23T11:43:12.245Z,635.62
2022-09-23T11:44:12.169Z,691.88
2022-09-23T11:45:12.154Z,669.38
2022-09-23T11:46:12.475Z,680.62
2022-09-23T11:47:12.118Z,669.38
2022-09-23T11:48:12.131Z,669.38
2022-09-23T11:49:12.092Z,630.00
2022-09-23T11:50:12.142Z,596.25
2022-09-23T11:51:12.096Z,618.75
2022-09-23T11:52:12.426Z,613.12
2022-09-23T11:53:12.053Z,630.00
2022-09-23T11:54:12.092Z,669.38
2022-09-23T11:55:20.338Z,714.38
2022-09-23T11:56:17.252Z,691.88
2022-09-23T11:57:13.042Z,787.50
2022-09-23T11:58:22.340Z,821.25
2022-09-23T11:59:13.169Z,787.50
2022-09-23T12:00:12.108Z,866.25
2022-09-23T12:01:11.976Z,866.25
2022-09-23T12:02:19.291Z,849.38
2022-09-23T12:03:16.897Z,860.62
2022-09-23T12:04:20.024Z,826.88
2022-09-23T12:05:13.066Z,871.88
2022-09-23T12:06:12.171Z,866.25
2022-09-23T12:07:11.882Z,883.12
2022-09-23T12:08:11.851Z,894.38
2022-09-23T12:09:11.845Z,883.12
2022-09-23T12:10:12.015Z,888.75
2022-09-23T12:11:11.825Z,838.12
2022-09-23T12:12:11.800Z,759.38
2022-09-23T12:13:11.798Z,697.50
2022-09-23T12:14:11.790Z,663.75
2022-09-23T12:15:12.136Z,663.75
2022-09-23T12:16:11.802Z,675.00
2022-09-23T12:17:11.766Z,675.00
2022-09-23T12:18:11.756Z,675.00
2022-09-23T12:19:12.003Z,680.62
2022-09-23T12:20:11.814Z,680.62
2022-09-23T12:21:22.424Z,686.25
2022-09-23T12:22:12.677Z,686.25
2022-09-23T12:23:11.664Z,691.88
2022-09-23T12:24:15.900Z,663.75
2022-09-23T12:25:12.666Z,646.88
2022-09-23T12:26:11.654Z,630.00
2022-09-23T12:27:11.623Z,630.00
2022-09-23T12:28:11.728Z,630.00
2022-09-23T12:29:11.615Z,630.00
2022-09-23T12:30:11.622Z,646.88
2022-09-23T12:31:13.363Z,663.75
2022-09-23T12:32:12.436Z,675.00
2022-09-23T12:33:11.540Z,697.50
2022-09-23T12:34:11.524Z,703.12
2022-09-23T12:35:11.630Z,680.62
2022-09-23T12:36:11.484Z,686.25
2022-09-23T12:37:11.502Z,720.00
2022-09-23T12:38:11.597Z,725.62
2022-09-23T12:39:11.792Z,748.12
2022-09-23T12:40:11.573Z,731.25
2022-09-23T12:41:11.734Z,742.50
2022-09-23T12:42:11.410Z,703.12
2022-09-23T12:43:11.415Z,691.88
2022-09-23T12:44:11.408Z,663.75
2022-09-23T12:45:11.406Z,635.62
2022-09-23T12:46:11.446Z,596.25
2022-09-23T12:47:11.639Z,579.38
2022-09-23T12:48:11.342Z,579.38
2022-09-23T12:49:11.339Z,579.38
2022-09-23T12:50:16.626Z,579.38
2022-09-23T12:51:12.300Z,596.25
2022-09-23T12:52:11.331Z,618.75
2022-09-23T12:53:11.299Z,646.88
2022-09-23T12:54:11.285Z,663.75
2022-09-23T12:55:11.283Z,753.75
2022-09-23T12:56:11.275Z,765.00
2022-09-23T12:57:11.224Z,793.12
2022-09-23T12:58:11.539Z,804.38
2022-09-23T12:59:11.201Z,798.75
2022-09-23T13:00:11.265Z,781.88
2022-09-23T13:01:11.343Z,759.38
2022-09-23T13:02:11.261Z,787.50
2022-09-23T13:03:11.158Z,787.50
2022-09-23T13:04:11.167Z,765.00
2022-09-23T13:05:11.137Z,765.00
2022-09-23T13:06:11.141Z,776.25
2022-09-23T13:07:11.087Z,793.12
2022-09-23T13:08:11.145Z,759.38
2022-09-23T13:09:13.794Z,736.88
2022-09-23T13:10:11.171Z,686.25
2022-09-23T13:11:11.062Z,646.88
2022-09-23T13:12:11.038Z,635.62
2022-09-23T13:13:11.053Z,613.12
2022-09-23T13:14:10.999Z,590.62
2022-09-23T13:15:11.054Z,573.75
2022-09-23T13:16:11.018Z,562.50
2022-09-23T13:17:10.993Z,551.25
2022-09-23T13:18:10.983Z,534.38
2022-09-23T13:19:14.817Z,523.12
2022-09-23T13:20:10.948Z,511.88
2022-09-23T13:21:10.913Z,500.62
2022-09-23T13:22:10.924Z,500.62
2022-09-23T13:23:10.889Z,495.00
2022-09-23T13:24:10.881Z,495.00
2022-09-23T13:25:10.996Z,500.62
2022-09-23T13:26:10.839Z,517.50
2022-09-23T13:27:10.916Z,517.50
2022-09-23T13:28:10.810Z,511.88
2022-09-23T13:29:10.886Z,517.50
2022-09-23T13:30:11.075Z,528.75
2022-09-23T13:31:10.794Z,534.38
2022-09-23T13:32:10.797Z,551.25
2022-09-23T13:33:10.762Z,590.62
2022-09-23T13:34:10.740Z,613.12
2022-09-23T13:35:10.735Z,618.75
2022-09-23T13:36:11.039Z,641.25
2022-09-23T13:37:10.720Z,663.75
2022-09-23T13:38:10.694Z,646.88
2022-09-23T13:39:10.722Z,646.88
2022-09-23T13:40:10.874Z,646.88
2022-09-23T13:41:10.652Z,618.75
2022-09-23T13:42:10.662Z,562.50
2022-09-23T13:43:10.621Z,528.75
2022-09-23T13:44:10.627Z,506.25
2022-09-23T13:45:10.662Z,489.38
2022-09-23T13:46:10.707Z,478.12
2022-09-23T13:47:10.586Z,466.88
2022-09-23T13:48:10.576Z,450.00
2022-09-23T13:49:10.840Z,438.75
2022-09-23T13:50:10.571Z,433.12
2022-09-23T13:51:10.517Z,450.00
2022-09-23T13:52:10.595Z,495.00
2022-09-23T13:53:10.572Z,523.12
2022-09-23T13:54:10.553Z,568.12
2022-09-23T13:55:14.433Z,630.00
2022-09-23T13:56:10.508Z,675.00
2022-09-23T13:57:10.452Z,596.25
2022-09-23T13:58:10.446Z,618.75
2022-09-23T13:59:10.432Z,652.50
2022-09-23T14:00:10.435Z,596.25
2022-09-23T14:01:10.731Z,579.38
2022-09-23T14:02:10.468Z,556.88
2022-09-23T14:03:10.427Z,540.00
2022-09-23T14:04:10.434Z,545.62
2022-09-23T14:05:10.341Z,528.75
2022-09-23T14:06:10.357Z,511.88
2022-09-23T14:07:10.309Z,489.38
2022-09-23T14:08:10.288Z,478.12
2022-09-23T14:09:10.343Z,472.50
2022-09-23T14:10:10.312Z,478.12
2022-09-23T14:11:10.266Z,483.75
2022-09-23T14:12:10.233Z,495.00
2022-09-23T14:13:10.243Z,489.38
2022-09-23T14:14:10.295Z,489.38
2022-09-23T14:15:10.239Z,483.75
2022-09-23T14:16:10.389Z,478.12
2022-09-23T14:17:10.187Z,472.50
2022-09-23T14:18:10.169Z,466.88
2022-09-23T14:19:10.165Z,461.25
2022-09-23T14:20:10.240Z,427.50
2022-09-23T14:21:10.210Z,427.50
2022-09-23T14:22:12.353Z,410.62
2022-09-23T14:23:12.814Z,399.38
2022-09-23T14:24:10.274Z,388.12
2022-09-23T14:25:10.109Z,382.50
2022-09-23T14:26:10.056Z,371.25
2022-09-23T14:27:10.132Z,360.00
2022-09-23T14:28:10.065Z,354.38
2022-09-23T14:29:10.100Z,348.75
2022-09-23T14:30:10.082Z,343.12
2022-09-23T14:31:10.043Z,337.50
2022-09-23T14:32:10.005Z,331.88
2022-09-23T14:33:09.985Z,331.88
2022-09-23T14:34:10.006Z,331.88
2022-09-23T14:35:10.018Z,331.88
2022-09-23T14:36:09.925Z,326.25
2022-09-23T14:37:09.914Z,326.25
2022-09-23T14:38:09.898Z,326.25
2022-09-23T14:39:09.896Z,326.25
2022-09-23T14:40:09.908Z,326.25
2022-09-23T14:41:12.590Z,326.25
2022-09-23T14:42:09.839Z,326.25
2022-09-23T14:43:09.875Z,320.62
2022-09-23T14:44:09.879Z,320.62
2022-09-23T14:45:09.867Z,320.62
2022-09-23T14:46:09.907Z,326.25
2022-09-23T14:47:12.261Z,326.25
2022-09-23T14:48:09.783Z,326.25
2022-09-23T14:49:09.860Z,326.25
2022-09-23T14:50:09.779Z,326.25
2022-09-23T14:51:13.268Z,326.25
2022-09-23T14:52:10.717Z,320.62
2022-09-23T14:53:09.708Z,315.00
2022-09-23T14:54:09.764Z,309.38
2022-09-23T14:55:09.783Z,298.12
2022-09-23T14:56:09.699Z,292.50
2022-09-23T14:57:09.733Z,286.88
2022-09-23T14:58:09.694Z,281.25
2022-09-23T14:59:09.675Z,275.62
2022-09-23T15:00:09.655Z,264.38
2022-09-23T15:01:09.875Z,258.75
2022-09-23T15:02:09.589Z,247.50
2022-09-23T15:03:09.606Z,241.88
2022-09-23T15:04:09.563Z,230.62
2022-09-23T15:05:09.573Z,225.00
2022-09-23T15:06:10.259Z,219.38
2022-09-23T15:07:09.554Z,213.75
2022-09-23T15:08:09.515Z,208.12
2022-09-23T15:09:09.581Z,208.12
2022-09-23T15:10:09.508Z,208.12
2022-09-23T15:11:09.603Z,213.75
2022-09-23T15:12:09.472Z,213.75
2022-09-23T15:13:09.460Z,219.38
2022-09-23T15:14:33.505Z,219.38
2022-09-23T15:15:10.487Z,219.38
2022-09-23T15:16:09.471Z,219.38
2022-09-23T15:17:09.425Z,219.38
2022-09-23T15:18:09.387Z,219.38
2022-09-23T15:19:09.379Z,219.38
2022-09-23T15:20:09.356Z,213.75
2022-09-23T15:21:09.381Z,213.75
2022-09-23T15:22:09.360Z,213.75
2022-09-23T15:23:09.324Z,213.75
2022-09-23T15:24:09.324Z,213.75
2022-09-23T15:25:09.417Z,219.38
2022-09-23T15:26:09.296Z,219.38
2022-09-23T15:27:09.964Z,225.00
2022-09-23T15:28:09.251Z,225.00
2022-09-23T15:29:10.217Z,225.00
2022-09-23T15:30:14.588Z,225.00
2022-09-23T15:31:10.655Z,225.00
2022-09-23T15:32:09.231Z,225.00
2022-09-23T15:33:09.214Z,225.00
2022-09-23T15:34:09.934Z,225.00
2022-09-23T15:35:10.052Z,225.00
2022-09-23T15:36:09.723Z,225.00
2022-09-23T15:37:09.181Z,225.00
2022-09-23T15:38:09.142Z,225.00
2022-09-23T15:39:09.185Z,219.38
2022-09-23T15:40:09.472Z,219.38
2022-09-23T15:41:09.106Z,213.75
2022-09-23T15:42:09.089Z,208.12
2022-09-23T15:43:15.547Z,202.50
2022-09-23T15:44:10.077Z,191.25
2022-09-23T15:45:09.081Z,185.62
2022-09-23T15:46:09.111Z,174.38
2022-09-23T15:47:09.020Z,168.75
2022-09-23T15:48:09.007Z,157.50
2022-09-23T15:49:09.120Z,151.88
2022-09-23T15:50:09.023Z,146.25
2022-09-23T15:51:08.988Z,140.62
2022-09-23T15:52:08.967Z,135.00
2022-09-23T15:53:08.939Z,129.38
2022-09-23T15:54:08.931Z,123.75
2022-09-23T15:55:09.175Z,118.12
2022-09-23T15:56:08.898Z,106.88
2022-09-23T15:57:08.891Z,106.88
2022-09-23T15:58:08.870Z,106.88
2022-09-23T15:59:09.003Z,101.25
2022-09-23T16:00:12.186Z,95.62
2022-09-23T16:01:08.916Z,95.62
2022-09-23T16:02:08.871Z,95.62
2022-09-23T16:03:08.832Z,95.62
2022-09-23T16:04:08.800Z,95.62
2022-09-23T16:05:08.837Z,95.62
2022-09-23T16:06:08.783Z,101.25
2022-09-23T16:07:09.518Z,101.25
2022-09-23T16:08:09.573Z,101.25
2022-09-23T16:09:08.850Z,101.25
2022-09-23T16:10:09.630Z,101.25
2022-09-23T16:11:08.988Z,101.25
2022-09-23T16:12:08.707Z,101.25
2022-09-23T16:13:08.691Z,101.25
2022-09-23T16:14:08.664Z,101.25
2022-09-23T16:15:08.643Z,101.25
2022-09-23T16:16:08.674Z,101.25
2022-09-23T16:17:08.642Z,95.62
2022-09-23T16:18:08.606Z,95.62
2022-09-23T16:19:08.694Z,95.62
2022-09-23T16:20:08.596Z,95.62
2022-09-23T16:21:08.586Z,95.62
2022-09-23T16:22:08.551Z,90.00
2022-09-23T16:23:08.558Z,90.00
2022-09-23T16:24:08.549Z,84.38
2022-09-23T16:25:08.521Z,84.38
2022-09-23T16:26:08.663Z,78.75
2022-09-23T16:27:08.565Z,78.75
2022-09-23T16:28:08.477Z,73.12
2022-09-23T16:29:08.577Z,67.50
2022-09-23T16:30:08.495Z,61.88
2022-09-23T16:31:08.633Z,61.88
2022-09-23T16:32:08.488Z,56.25
2022-09-23T16:33:08.486Z,50.62
2022-09-23T16:34:08.424Z,50.62
2022-09-23T16:35:08.389Z,50.62
2022-09-23T16:36:08.379Z,50.62
2022-09-23T16:37:08.363Z,50.62
2022-09-23T16:38:08.371Z,50.62
2022-09-23T16:39:08.399Z,50.62
2022-09-23T16:40:08.635Z,50.62
2022-09-23T16:41:08.735Z,45.00
2022-09-23T16:42:08.296Z,45.00
2022-09-23T16:43:08.312Z,45.00
2022-09-23T16:44:08.296Z,39.38
2022-09-23T16:45:08.276Z,39.38
2022-09-23T16:46:08.326Z,39.38
2022-09-23T16:47:08.259Z,33.75
2022-09-23T16:48:08.555Z,33.75
2022-09-23T16:49:08.321Z,33.75
2022-09-23T16:50:08.209Z,28.12
2022-09-23T16:51:08.214Z,28.12
2022-09-23T16:52:08.182Z,28.12
2022-09-23T16:53:08.195Z,28.12
2022-09-23T16:54:08.165Z,28.12
2022-09-23T16:55:08.209Z,22.50
2022-09-23T16:56:08.139Z,22.50
2022-09-23T16:57:08.139Z,22.50
2022-09-23T16:58:08.094Z,22.50
2022-09-23T16:59:08.251Z,16.88
2022-09-23T17:00:08.099Z,16.88
2022-09-23T17:01:08.212Z,16.88
2022-09-23T17:02:08.116Z,16.88
2022-09-23T17:03:08.440Z,16.88
2022-09-23T17:04:08.030Z,11.25
2022-09-23T17:05:08.020Z,11.25
2022-09-23T17:06:08.282Z,11.25
2022-09-23T17:07:07.998Z,11.25
2022-09-23T17:08:08.022Z,5.62
2022-09-23T17:09:07.949Z,5.62
2022-09-23T17:10:07.940Z,5.62
2022-09-23T17:11:07.938Z,5.62
2022-09-23T17:12:07.900Z,5.62
2022-09-23T17:13:07.899Z,5.62
2022-09-23T17:14:07.888Z,5.62
2022-09-23T17:15:07.918Z,0.00
2022-09-23T17:16:07.940Z,0.00
2022-09-23T17:17:07.852Z,0.00
2022-09-23T17:18:07.838Z,0.00
2022-09-23T17:19:08.875Z,0.00
2022-09-23T17:20:07.915Z,0.00
2022-09-23T17:21:07.809Z,0.00
2022-09-23T17:22:07.776Z,0.00
2022-09-23T17:23:07.824Z,0.00
2022-09-23T17:24:07.809Z,0.00
2022-09-23T17:25:07.725Z,0.00
2022-09-23T17:26:07.966Z,0.00
2022-09-23T17:27:07.709Z,0.00
2022-09-23T17:28:07.703Z,0.00
2022-09-23T17:29:07.783Z,0.00
2022-09-23T17:30:07.668Z,0.00
2022-09-23T17:31:08.384Z,0.00
2022-09-23T17:32:07.679Z,0.00
2022-09-23T17:33:07.636Z,0.00
2022-09-23T17:34:07.608Z,0.00
2022-09-23T17:35:07.609Z,0.00
2022-09-23T17:36:07.610Z,0.00
2022-09-23T17:37:07.579Z,0.00
2022-09-23T17:38:07.582Z,0.00
2022-09-23T17:39:07.652Z,0.00
2022-09-23T17:40:07.628Z,0.00
2022-09-23T17:41:07.533Z,0.00
2022-09-23T17:42:07.517Z,0.00
2022-09-23T17:43:07.511Z,0.00
2022-09-23T17:44:07.808Z,0.00
2022-09-23T17:45:07.481Z,0.00
2022-09-23T17:46:07.556Z,0.00
2022-09-23T17:47:07.471Z,0.00
2022-09-23T17:48:07.424Z,0.00
2022-09-23T17:49:07.492Z,0.00
2022-09-23T17:50:07.407Z,0.00
2022-09-23T17:51:07.404Z,0.00
2022-09-23T17:52:07.403Z,0.00
2022-09-23T17:53:07.398Z,0.00
2022-09-23T17:54:07.354Z,0.00
2022-09-23T17:55:07.320Z,0.00
2022-09-23T17:56:07.391Z,0.00
2022-09-23T17:57:07.354Z,0.00
2022-09-23T17:58:07.315Z,0.00
2022-09-23T17:59:07.309Z,0.00
2022-09-23T18:00:07.293Z,0.00
2022-09-23T18:01:07.329Z,0.00
2022-09-23T18:02:07.346Z,0.00